Strona główna
METAR-TAF:

METAR-TAF

Lotnisko :

Port lotniczy Paryż-Roissy-Charles de Gaulle

Paryż-Charles de Gaulle, Francja

Szerokość geograficzna: 49-01N, Długość geograficzna: 002-32E, wysokość: 118 m

Aktualna obserwacja pogody

Raport powstał 19 minut temu, godzina 05:30 UTC
Wiatr 9 kt od wschodnio-północny wschód
Temperatura 15°C
Wilgotność 59%
Ciśnienie 1019 hPa
Widzialność 10 km lub więcej
Brak chmur poniżej 1500 m i brak chmur cumulonimbus

METAR: LFPG 010530Z AUTO 06009KT CAVOK 15/07 Q1019 NOSIG

czas: 07:49 (05:49 UTC)

Prognoza

Raport powstał 49 minut temu, godzina 05:00 UTC
Prognoza ważna od 01 godzina 06 UTC do 02 godzina 12 UTC
Wiatr 10 kt od wschodnio-północny wschód
Widzialność 10 km lub więcej
Brak chmur poniżej 1500 m i brak chmur cumulonimbus
Prawdopodobieństwo 40% :
Przejściowo
od 01 godzina 20 UTC do 02 godzina 06 UTC
Wiatr 3 kt z kierunków zmiennych

TAF: LFPG 010500Z 0106/0212 06010KT CAVOK TX28/0212Z TN14/0204Z PROB40 TEMPO 0120/0206 VRB03KT

Obserwacja i prognoza pogody dla ponad 4000 lotnisk (raport METAR i TAF).

Dostępne stacje oznaczono żółtymi i czerwonymi punktami na mapie.

Najedź kursorem aby zobaczyć nazwę stacji.

Kliknij aby zobaczyć obserwacje i prognozy pogody.

Aby zmienić mapę: kliknij na zielony przycisk z czarnym krzyżykiem, aby powiększyć; na zielony przycisk z myślnikiem, aby pomniejszyć; na zielone strzałki, aby przejść do map sąsiednich.


METAR-TAF: